sensor_id;sensor_type;location;lat;lon;timestamp;P1;durP1;ratioP1;P2;durP2;ratioP2
18501;SDS011;68437;52.236;5.710;2023-04-24T00:00:31;14.93;;;10.38;;
18501;SDS011;68437;52.236;5.710;2023-04-24T00:02:58;14.95;;;10.40;;
18501;SDS011;68437;52.236;5.710;2023-04-24T00:05:26;17.70;;;10.82;;
18501;SDS011;68437;52.236;5.710;2023-04-24T00:07:53;15.30;;;10.48;;
18501;SDS011;68437;52.236;5.710;2023-04-24T00:10:21;14.77;;;8.85;;
18501;SDS011;68437;52.236;5.710;2023-04-24T00:12:50;10.07;;;7.43;;
18501;SDS011;68437;52.236;5.710;2023-04-24T00:15:20;9.82;;;6.28;;
18501;SDS011;68437;52.236;5.710;2023-04-24T00:17:47;7.45;;;4.88;;
18501;SDS011;68437;52.236;5.710;2023-04-24T00:20:14;6.25;;;4.90;;
18501;SDS011;68437;52.236;5.710;2023-04-24T00:22:45;6.85;;;4.53;;
18501;SDS011;68437;52.236;5.710;2023-04-24T00:25:12;6.07;;;4.82;;
18501;SDS011;68437;52.236;5.710;2023-04-24T00:27:39;8.40;;;4.72;;
18501;SDS011;68437;52.236;5.710;2023-04-24T00:30:06;6.13;;;4.75;;
18501;SDS011;68437;52.236;5.710;2023-04-24T00:32:34;7.70;;;5.50;;
18501;SDS011;68437;52.236;5.710;2023-04-24T00:35:01;9.60;;;5.80;;
18501;SDS011;68437;52.236;5.710;2023-04-24T00:37:28;7.60;;;5.97;;
18501;SDS011;68437;52.236;5.710;2023-04-24T00:39:56;10.52;;;6.03;;
18501;SDS011;68437;52.236;5.710;2023-04-24T00:42:23;10.30;;;7.20;;
18501;SDS011;68437;52.236;5.710;2023-04-24T00:44:50;12.38;;;7.75;;
18501;SDS011;68437;52.236;5.710;2023-04-24T00:47:18;11.75;;;7.78;;
18501;SDS011;68437;52.236;5.710;2023-04-24T00:49:46;10.73;;;8.02;;
18501;SDS011;68437;52.236;5.710;2023-04-24T00:52:13;13.32;;;7.85;;
18501;SDS011;68437;52.236;5.710;2023-04-24T00:54:42;12.00;;;8.13;;
18501;SDS011;68437;52.236;5.710;2023-04-24T00:57:11;11.40;;;6.93;;
18501;SDS011;68437;52.236;5.710;2023-04-24T00:59:40;9.90;;;6.93;;
18501;SDS011;68437;52.236;5.710;2023-04-24T01:02:07;9.57;;;6.72;;
18501;SDS011;68437;52.236;5.710;2023-04-24T01:04:35;10.88;;;7.75;;
18501;SDS011;68437;52.236;5.710;2023-04-24T01:07:03;11.68;;;8.23;;
18501;SDS011;68437;52.236;5.710;2023-04-24T01:09:34;12.40;;;8.52;;
18501;SDS011;68437;52.236;5.710;2023-04-24T01:12:02;12.88;;;9.23;;
18501;SDS011;68437;52.236;5.710;2023-04-24T01:14:30;15.65;;;10.50;;
18501;SDS011;68437;52.236;5.710;2023-04-24T01:16:59;16.58;;;10.32;;
18501;SDS011;68437;52.236;5.710;2023-04-24T01:19:26;17.10;;;10.60;;
18501;SDS011;68437;52.236;5.710;2023-04-24T01:21:53;18.60;;;10.32;;
18501;SDS011;68437;52.236;5.710;2023-04-24T01:24:25;13.82;;;9.98;;
18501;SDS011;68437;52.236;5.710;2023-04-24T01:26:52;17.08;;;10.27;;
18501;SDS011;68437;52.236;5.710;2023-04-24T01:29:21;14.55;;;10.18;;
18501;SDS011;68437;52.236;5.710;2023-04-24T01:31:48;14.93;;;10.18;;
18501;SDS011;68437;52.236;5.710;2023-04-24T01:34:16;15.30;;;9.75;;
18501;SDS011;68437;52.236;5.710;2023-04-24T01:36:45;14.93;;;10.15;;
18501;SDS011;68437;52.236;5.710;2023-04-24T01:39:12;13.45;;;9.32;;
18501;SDS011;68437;52.236;5.710;2023-04-24T01:41:42;14.32;;;9.77;;
18501;SDS011;68437;52.236;5.710;2023-04-24T01:44:08;15.68;;;10.23;;
18501;SDS011;68437;52.236;5.710;2023-04-24T01:46:35;17.85;;;10.63;;
18501;SDS011;68437;52.236;5.710;2023-04-24T01:49:02;18.63;;;10.07;;
18501;SDS011;68437;52.236;5.710;2023-04-24T01:51:29;19.98;;;10.98;;
18501;SDS011;68437;52.236;5.710;2023-04-24T01:53:56;17.10;;;10.48;;
18501;SDS011;68437;52.236;5.710;2023-04-24T01:56:23;17.40;;;11.25;;
18501;SDS011;68437;52.236;5.710;2023-04-24T01:58:53;20.10;;;11.13;;
18501;SDS011;68437;52.236;5.710;2023-04-24T02:01:21;16.23;;;10.55;;
18501;SDS011;68437;52.236;5.710;2023-04-24T02:03:49;18.30;;;11.52;;
18501;SDS011;68437;52.236;5.710;2023-04-24T02:06:16;18.02;;;11.30;;
18501;SDS011;68437;52.236;5.710;2023-04-24T02:08:43;22.08;;;11.63;;
18501;SDS011;68437;52.236;5.710;2023-04-24T02:11:10;22.17;;;12.50;;
18501;SDS011;68437;52.236;5.710;2023-04-24T02:13:36;21.25;;;12.55;;
18501;SDS011;68437;52.236;5.710;2023-04-24T02:16:07;20.23;;;12.05;;
18501;SDS011;68437;52.236;5.710;2023-04-24T02:18:34;21.58;;;12.50;;
18501;SDS011;68437;52.236;5.710;2023-04-24T02:21:01;22.15;;;12.75;;
18501;SDS011;68437;52.236;5.710;2023-04-24T02:23:27;24.35;;;12.80;;
18501;SDS011;68437;52.236;5.710;2023-04-24T02:25:54;23.35;;;13.45;;
18501;SDS011;68437;52.236;5.710;2023-04-24T02:28:21;22.42;;;12.75;;
18501;SDS011;68437;52.236;5.710;2023-04-24T02:30:48;23.33;;;13.63;;
18501;SDS011;68437;52.236;5.710;2023-04-24T02:33:17;25.23;;;13.48;;
18501;SDS011;68437;52.236;5.710;2023-04-24T02:35:44;25.35;;;13.52;;
18501;SDS011;68437;52.236;5.710;2023-04-24T02:38:11;24.42;;;14.15;;
18501;SDS011;68437;52.236;5.710;2023-04-24T02:40:38;31.63;;;14.60;;
18501;SDS011;68437;52.236;5.710;2023-04-24T02:43:05;25.45;;;13.85;;
18501;SDS011;68437;52.236;5.710;2023-04-24T02:45:32;27.00;;;14.15;;
18501;SDS011;68437;52.236;5.710;2023-04-24T02:47:59;27.20;;;13.43;;
18501;SDS011;68437;52.236;5.710;2023-04-24T02:50:27;27.20;;;14.27;;
18501;SDS011;68437;52.236;5.710;2023-04-24T02:52:54;26.67;;;13.93;;
18501;SDS011;68437;52.236;5.710;2023-04-24T02:55:21;28.63;;;13.65;;
18501;SDS011;68437;52.236;5.710;2023-04-24T02:57:48;30.58;;;14.48;;
18501;SDS011;68437;52.236;5.710;2023-04-24T03:00:15;23.73;;;13.70;;
18501;SDS011;68437;52.236;5.710;2023-04-24T03:02:42;26.45;;;13.88;;
18501;SDS011;68437;52.236;5.710;2023-04-24T03:05:09;25.92;;;13.45;;
18501;SDS011;68437;52.236;5.710;2023-04-24T03:07:38;26.80;;;13.52;;
18501;SDS011;68437;52.236;5.710;2023-04-24T03:10:05;25.08;;;13.23;;
18501;SDS011;68437;52.236;5.710;2023-04-24T03:12:33;25.05;;;12.63;;
18501;SDS011;68437;52.236;5.710;2023-04-24T03:15:00;22.75;;;12.10;;
18501;SDS011;68437;52.236;5.710;2023-04-24T03:17:27;23.00;;;11.85;;
18501;SDS011;68437;52.236;5.710;2023-04-24T03:19:53;24.23;;;12.07;;
18501;SDS011;68437;52.236;5.710;2023-04-24T03:22:20;21.98;;;11.43;;
18501;SDS011;68437;52.236;5.710;2023-04-24T03:24:48;25.00;;;11.90;;
18501;SDS011;68437;52.236;5.710;2023-04-24T03:27:17;23.63;;;12.23;;
18501;SDS011;68437;52.236;5.710;2023-04-24T03:29:44;24.13;;;11.82;;
18501;SDS011;68437;52.236;5.710;2023-04-24T03:32:11;24.63;;;12.60;;
18501;SDS011;68437;52.236;5.710;2023-04-24T03:34:37;23.80;;;11.73;;
18501;SDS011;68437;52.236;5.710;2023-04-24T03:37:04;22.27;;;11.68;;
18501;SDS011;68437;52.236;5.710;2023-04-24T03:39:31;25.10;;;12.13;;
18501;SDS011;68437;52.236;5.710;2023-04-24T03:41:59;22.83;;;11.80;;
18501;SDS011;68437;52.236;5.710;2023-04-24T03:44:26;26.05;;;11.93;;
18501;SDS011;68437;52.236;5.710;2023-04-24T03:46:53;20.92;;;11.32;;
18501;SDS011;68437;52.236;5.710;2023-04-24T03:49:20;22.25;;;11.13;;
18501;SDS011;68437;52.236;5.710;2023-04-24T03:51:47;23.38;;;11.35;;
18501;SDS011;68437;52.236;5.710;2023-04-24T03:54:13;21.27;;;10.65;;
18501;SDS011;68437;52.236;5.710;2023-04-24T03:56:40;19.55;;;10.02;;
18501;SDS011;68437;52.236;5.710;2023-04-24T03:59:08;21.80;;;10.02;;
18501;SDS011;68437;52.236;5.710;2023-04-24T04:01:35;16.70;;;9.13;;
18501;SDS011;68437;52.236;5.710;2023-04-24T04:04:03;17.17;;;9.73;;
18501;SDS011;68437;52.236;5.710;2023-04-24T04:06:29;19.27;;;9.40;;
18501;SDS011;68437;52.236;5.710;2023-04-24T04:08:56;19.30;;;9.57;;
18501;SDS011;68437;52.236;5.710;2023-04-24T04:11:24;18.52;;;9.57;;
18501;SDS011;68437;52.236;5.710;2023-04-24T04:13:51;19.13;;;9.95;;
18501;SDS011;68437;52.236;5.710;2023-04-24T04:16:19;16.17;;;9.10;;
18501;SDS011;68437;52.236;5.710;2023-04-24T04:18:46;20.15;;;10.02;;
18501;SDS011;68437;52.236;5.710;2023-04-24T04:21:12;17.08;;;9.23;;
18501;SDS011;68437;52.236;5.710;2023-04-24T04:23:39;17.15;;;9.40;;
18501;SDS011;68437;52.236;5.710;2023-04-24T04:26:06;15.43;;;8.00;;
18501;SDS011;68437;52.236;5.710;2023-04-24T04:28:34;14.20;;;7.85;;
18501;SDS011;68437;52.236;5.710;2023-04-24T04:31:00;13.55;;;6.85;;
18501;SDS011;68437;52.236;5.710;2023-04-24T04:33:29;13.35;;;7.05;;
18501;SDS011;68437;52.236;5.710;2023-04-24T04:35:56;14.05;;;6.90;;
18501;SDS011;68437;52.236;5.710;2023-04-24T04:38:23;13.50;;;7.00;;
18501;SDS011;68437;52.236;5.710;2023-04-24T04:40:51;13.38;;;6.78;;
18501;SDS011;68437;52.236;5.710;2023-04-24T04:43:18;11.50;;;6.00;;
18501;SDS011;68437;52.236;5.710;2023-04-24T04:45:45;12.10;;;5.20;;
18501;SDS011;68437;52.236;5.710;2023-04-24T04:48:13;10.45;;;5.40;;
18501;SDS011;68437;52.236;5.710;2023-04-24T04:50:43;11.88;;;5.72;;
18501;SDS011;68437;52.236;5.710;2023-04-24T04:53:10;9.95;;;5.45;;
18501;SDS011;68437;52.236;5.710;2023-04-24T04:55:37;13.10;;;5.97;;
18501;SDS011;68437;52.236;5.710;2023-04-24T04:58:04;10.70;;;5.78;;
18501;SDS011;68437;52.236;5.710;2023-04-24T05:00:31;10.30;;;5.70;;
18501;SDS011;68437;52.236;5.710;2023-04-24T05:03:00;13.80;;;6.68;;
18501;SDS011;68437;52.236;5.710;2023-04-24T05:05:27;10.95;;;5.65;;
18501;SDS011;68437;52.236;5.710;2023-04-24T05:07:55;12.98;;;6.88;;
18501;SDS011;68437;52.236;5.710;2023-04-24T05:10:22;13.70;;;7.05;;
18501;SDS011;68437;52.236;5.710;2023-04-24T05:12:49;11.20;;;6.00;;
18501;SDS011;68437;52.236;5.710;2023-04-24T05:15:16;14.48;;;6.93;;
18501;SDS011;68437;52.236;5.710;2023-04-24T05:17:45;10.43;;;5.95;;
18501;SDS011;68437;52.236;5.710;2023-04-24T05:20:12;13.05;;;6.15;;
18501;SDS011;68437;52.236;5.710;2023-04-24T05:22:39;12.65;;;5.95;;
18501;SDS011;68437;52.236;5.710;2023-04-24T05:25:08;10.20;;;5.57;;
18501;SDS011;68437;52.236;5.710;2023-04-24T05:27:35;9.55;;;5.20;;
18501;SDS011;68437;52.236;5.710;2023-04-24T05:30:02;7.20;;;4.47;;
18501;SDS011;68437;52.236;5.710;2023-04-24T05:32:29;9.40;;;4.78;;
18501;SDS011;68437;52.236;5.710;2023-04-24T05:34:56;9.10;;;4.78;;
18501;SDS011;68437;52.236;5.710;2023-04-24T05:37:23;10.85;;;4.70;;
18501;SDS011;68437;52.236;5.710;2023-04-24T05:39:50;9.60;;;4.60;;
18501;SDS011;68437;52.236;5.710;2023-04-24T05:42:18;9.52;;;4.95;;
18501;SDS011;68437;52.236;5.710;2023-04-24T05:44:45;8.50;;;4.43;;
18501;SDS011;68437;52.236;5.710;2023-04-24T05:47:11;7.30;;;4.43;;
18501;SDS011;68437;52.236;5.710;2023-04-24T05:49:38;9.00;;;4.60;;
18501;SDS011;68437;52.236;5.710;2023-04-24T05:52:05;12.23;;;4.80;;
18501;SDS011;68437;52.236;5.710;2023-04-24T05:54:33;9.02;;;4.85;;
18501;SDS011;68437;52.236;5.710;2023-04-24T05:57:00;8.80;;;4.78;;
18501;SDS011;68437;52.236;5.710;2023-04-24T05:59:33;10.27;;;5.22;;
18501;SDS011;68437;52.236;5.710;2023-04-24T06:02:02;14.80;;;5.25;;
18501;SDS011;68437;52.236;5.710;2023-04-24T06:04:32;9.55;;;5.10;;
18501;SDS011;68437;52.236;5.710;2023-04-24T06:06:59;11.73;;;5.28;;
18501;SDS011;68437;52.236;5.710;2023-04-24T06:09:25;10.93;;;4.95;;
18501;SDS011;68437;52.236;5.710;2023-04-24T06:11:52;10.95;;;5.53;;
18501;SDS011;68437;52.236;5.710;2023-04-24T06:14:19;11.32;;;5.05;;
18501;SDS011;68437;52.236;5.710;2023-04-24T06:16:50;10.73;;;5.68;;
18501;SDS011;68437;52.236;5.710;2023-04-24T06:19:17;10.85;;;5.85;;
18501;SDS011;68437;52.236;5.710;2023-04-24T06:21:44;10.00;;;5.43;;
18501;SDS011;68437;52.236;5.710;2023-04-24T06:24:13;11.40;;;5.38;;
18501;SDS011;68437;52.236;5.710;2023-04-24T06:26:41;10.52;;;5.38;;
18501;SDS011;68437;52.236;5.710;2023-04-24T06:29:08;12.25;;;5.50;;
18501;SDS011;68437;52.236;5.710;2023-04-24T06:31:35;11.60;;;6.03;;
18501;SDS011;68437;52.236;5.710;2023-04-24T06:34:03;12.07;;;5.90;;
18501;SDS011;68437;52.236;5.710;2023-04-24T06:36:30;12.57;;;6.30;;
18501;SDS011;68437;52.236;5.710;2023-04-24T06:38:57;12.95;;;5.90;;
18501;SDS011;68437;52.236;5.710;2023-04-24T06:41:24;12.25;;;6.03;;
18501;SDS011;68437;52.236;5.710;2023-04-24T06:43:51;13.10;;;5.88;;
18501;SDS011;68437;52.236;5.710;2023-04-24T06:46:18;11.73;;;6.00;;
18501;SDS011;68437;52.236;5.710;2023-04-24T06:48:47;11.40;;;6.00;;
18501;SDS011;68437;52.236;5.710;2023-04-24T06:51:15;11.52;;;5.65;;
18501;SDS011;68437;52.236;5.710;2023-04-24T06:53:43;9.57;;;5.55;;
18501;SDS011;68437;52.236;5.710;2023-04-24T06:56:09;9.70;;;5.00;;
18501;SDS011;68437;52.236;5.710;2023-04-24T06:58:36;11.40;;;5.68;;
18501;SDS011;68437;52.236;5.710;2023-04-24T07:01:03;12.27;;;6.43;;
18501;SDS011;68437;52.236;5.710;2023-04-24T07:03:30;13.00;;;6.10;;
18501;SDS011;68437;52.236;5.710;2023-04-24T07:05:57;11.23;;;6.00;;
18501;SDS011;68437;52.236;5.710;2023-04-24T07:08:25;10.68;;;5.05;;
18501;SDS011;68437;52.236;5.710;2023-04-24T07:10:53;12.32;;;5.60;;
18501;SDS011;68437;52.236;5.710;2023-04-24T07:13:21;14.65;;;7.05;;
18501;SDS011;68437;52.236;5.710;2023-04-24T07:15:48;24.10;;;10.15;;
18501;SDS011;68437;52.236;5.710;2023-04-24T07:18:15;24.63;;;10.52;;
18501;SDS011;68437;52.236;5.710;2023-04-24T07:20:43;26.67;;;12.18;;
18501;SDS011;68437;52.236;5.710;2023-04-24T07:23:09;28.85;;;13.05;;
18501;SDS011;68437;52.236;5.710;2023-04-24T07:25:38;33.70;;;13.43;;
18501;SDS011;68437;52.236;5.710;2023-04-24T07:28:05;32.70;;;14.90;;
18501;SDS011;68437;52.236;5.710;2023-04-24T07:30:32;30.45;;;14.23;;
18501;SDS011;68437;52.236;5.710;2023-04-24T07:32:59;31.58;;;14.63;;
18501;SDS011;68437;52.236;5.710;2023-04-24T07:35:26;37.42;;;16.52;;
18501;SDS011;68437;52.236;5.710;2023-04-24T07:37:53;37.78;;;16.20;;
18501;SDS011;68437;52.236;5.710;2023-04-24T07:40:20;35.53;;;16.52;;
18501;SDS011;68437;52.236;5.710;2023-04-24T07:42:49;35.88;;;15.88;;
18501;SDS011;68437;52.236;5.710;2023-04-24T07:45:16;49.15;;;18.17;;
18501;SDS011;68437;52.236;5.710;2023-04-24T07:47:43;46.08;;;17.23;;
18501;SDS011;68437;52.236;5.710;2023-04-24T07:50:10;40.08;;;18.20;;
18501;SDS011;68437;52.236;5.710;2023-04-24T07:52:38;41.17;;;17.90;;
18501;SDS011;68437;52.236;5.710;2023-04-24T07:55:05;35.15;;;16.92;;
18501;SDS011;68437;52.236;5.710;2023-04-24T07:57:32;42.55;;;18.42;;
18501;SDS011;68437;52.236;5.710;2023-04-24T08:00:02;40.60;;;17.58;;
18501;SDS011;68437;52.236;5.710;2023-04-24T08:02:33;42.33;;;16.60;;
18501;SDS011;68437;52.236;5.710;2023-04-24T08:04:59;36.60;;;17.27;;
18501;SDS011;68437;52.236;5.710;2023-04-24T08:07:28;41.75;;;18.85;;
18501;SDS011;68437;52.236;5.710;2023-04-24T08:09:54;41.50;;;17.55;;
18501;SDS011;68437;52.236;5.710;2023-04-24T08:12:21;38.38;;;16.73;;
18501;SDS011;68437;52.236;5.710;2023-04-24T08:14:48;43.05;;;16.85;;
18501;SDS011;68437;52.236;5.710;2023-04-24T08:17:17;39.80;;;17.40;;
18501;SDS011;68437;52.236;5.710;2023-04-24T08:19:44;39.53;;;16.27;;
18501;SDS011;68437;52.236;5.710;2023-04-24T08:22:13;39.03;;;17.40;;
18501;SDS011;68437;52.236;5.710;2023-04-24T08:24:40;40.67;;;17.45;;
18501;SDS011;68437;52.236;5.710;2023-04-24T08:27:07;44.95;;;17.95;;
18501;SDS011;68437;52.236;5.710;2023-04-24T08:29:34;44.85;;;16.77;;
18501;SDS011;68437;52.236;5.710;2023-04-24T08:32:01;48.33;;;18.33;;
18501;SDS011;68437;52.236;5.710;2023-04-24T08:34:29;37.95;;;17.00;;
18501;SDS011;68437;52.236;5.710;2023-04-24T08:36:56;37.33;;;16.98;;
18501;SDS011;68437;52.236;5.710;2023-04-24T08:39:23;45.85;;;16.52;;
18501;SDS011;68437;52.236;5.710;2023-04-24T08:41:50;46.25;;;17.75;;
18501;SDS011;68437;52.236;5.710;2023-04-24T08:44:18;39.58;;;17.20;;
18501;SDS011;68437;52.236;5.710;2023-04-24T08:46:47;41.17;;;17.25;;
18501;SDS011;68437;52.236;5.710;2023-04-24T08:49:17;42.30;;;17.00;;
18501;SDS011;68437;52.236;5.710;2023-04-24T08:51:46;39.58;;;17.45;;
18501;SDS011;68437;52.236;5.710;2023-04-24T08:54:13;45.25;;;17.80;;
18501;SDS011;68437;52.236;5.710;2023-04-24T08:56:40;38.38;;;17.00;;
18501;SDS011;68437;52.236;5.710;2023-04-24T08:59:10;30.08;;;10.88;;
18501;SDS011;68437;52.236;5.710;2023-04-24T09:01:38;31.00;;;10.68;;
18501;SDS011;68437;52.236;5.710;2023-04-24T09:04:07;26.48;;;9.05;;
18501;SDS011;68437;52.236;5.710;2023-04-24T09:06:36;29.27;;;9.13;;
18501;SDS011;68437;52.236;5.710;2023-04-24T09:09:05;35.45;;;8.13;;
18501;SDS011;68437;52.236;5.710;2023-04-24T09:11:32;36.67;;;8.32;;
18501;SDS011;68437;52.236;5.710;2023-04-24T09:13:59;35.22;;;8.18;;
18501;SDS011;68437;52.236;5.710;2023-04-24T09:16:26;36.95;;;7.85;;
18501;SDS011;68437;52.236;5.710;2023-04-24T09:18:54;32.55;;;7.18;;
18501;SDS011;68437;52.236;5.710;2023-04-24T09:21:22;22.98;;;7.05;;
18501;SDS011;68437;52.236;5.710;2023-04-24T09:23:57;27.45;;;6.60;;
18501;SDS011;68437;52.236;5.710;2023-04-24T09:26:25;31.48;;;6.85;;
18501;SDS011;68437;52.236;5.710;2023-04-24T09:28:56;35.28;;;6.88;;
18501;SDS011;68437;52.236;5.710;2023-04-24T09:31:26;26.23;;;5.57;;
18501;SDS011;68437;52.236;5.710;2023-04-24T09:33:54;34.38;;;6.50;;
18501;SDS011;68437;52.236;5.710;2023-04-24T09:36:28;24.13;;;5.50;;
18501;SDS011;68437;52.236;5.710;2023-04-24T09:38:58;21.55;;;5.05;;
18501;SDS011;68437;52.236;5.710;2023-04-24T09:41:27;18.83;;;4.97;;
18501;SDS011;68437;52.236;5.710;2023-04-24T09:43:54;24.50;;;4.93;;
18501;SDS011;68437;52.236;5.710;2023-04-24T09:46:29;21.80;;;4.65;;
18501;SDS011;68437;52.236;5.710;2023-04-24T09:48:56;18.30;;;4.47;;
18501;SDS011;68437;52.236;5.710;2023-04-24T09:51:33;22.77;;;4.55;;
18501;SDS011;68437;52.236;5.710;2023-04-24T09:54:02;18.55;;;4.47;;
18501;SDS011;68437;52.236;5.710;2023-04-24T09:56:34;19.10;;;4.40;;
18501;SDS011;68437;52.236;5.710;2023-04-24T09:59:04;18.48;;;4.32;;
18501;SDS011;68437;52.236;5.710;2023-04-24T10:01:32;19.98;;;4.57;;
18501;SDS011;68437;52.236;5.710;2023-04-24T10:03:59;21.30;;;5.00;;
18501;SDS011;68437;52.236;5.710;2023-04-24T10:06:29;19.08;;;4.22;;
18501;SDS011;68437;52.236;5.710;2023-04-24T10:08:58;14.32;;;4.20;;
18501;SDS011;68437;52.236;5.710;2023-04-24T10:11:26;13.07;;;4.03;;
18501;SDS011;68437;52.236;5.710;2023-04-24T10:13:55;17.27;;;3.95;;
18501;SDS011;68437;52.236;5.710;2023-04-24T10:16:22;11.32;;;3.78;;
18501;SDS011;68437;52.236;5.710;2023-04-24T10:18:52;13.77;;;3.80;;
18501;SDS011;68437;52.236;5.710;2023-04-24T10:21:19;13.90;;;3.80;;
18501;SDS011;68437;52.236;5.710;2023-04-24T10:23:46;11.00;;;4.03;;
18501;SDS011;68437;52.236;5.710;2023-04-24T10:26:16;14.73;;;4.22;;
18501;SDS011;68437;52.236;5.710;2023-04-24T10:28:44;16.30;;;4.55;;
18501;SDS011;68437;52.236;5.710;2023-04-24T10:31:13;18.40;;;5.80;;
18501;SDS011;68437;52.236;5.710;2023-04-24T10:33:41;14.43;;;4.53;;
18501;SDS011;68437;52.236;5.710;2023-04-24T10:36:09;14.45;;;4.10;;
18501;SDS011;68437;52.236;5.710;2023-04-24T10:38:37;13.80;;;4.45;;
18501;SDS011;68437;52.236;5.710;2023-04-24T10:41:06;13.55;;;4.10;;
18501;SDS011;68437;52.236;5.710;2023-04-24T10:43:34;16.65;;;4.68;;
18501;SDS011;68437;52.236;5.710;2023-04-24T10:46:01;12.18;;;3.63;;
18501;SDS011;68437;52.236;5.710;2023-04-24T10:48:33;13.70;;;3.67;;
18501;SDS011;68437;52.236;5.710;2023-04-24T10:51:00;10.98;;;3.60;;
18501;SDS011;68437;52.236;5.710;2023-04-24T10:53:28;14.68;;;3.47;;
18501;SDS011;68437;52.236;5.710;2023-04-24T10:55:59;12.77;;;3.70;;
18501;SDS011;68437;52.236;5.710;2023-04-24T10:58:37;12.70;;;3.28;;
18501;SDS011;68437;52.236;5.710;2023-04-24T11:01:05;10.10;;;2.90;;
18501;SDS011;68437;52.236;5.710;2023-04-24T11:03:35;15.38;;;3.20;;
18501;SDS011;68437;52.236;5.710;2023-04-24T11:06:02;13.32;;;3.10;;
18501;SDS011;68437;52.236;5.710;2023-04-24T11:08:31;10.23;;;2.70;;
18501;SDS011;68437;52.236;5.710;2023-04-24T11:11:08;9.10;;;2.83;;
18501;SDS011;68437;52.236;5.710;2023-04-24T11:16:31;9.10;;;2.60;;
18501;SDS011;68437;52.236;5.710;2023-04-24T11:19:04;11.82;;;3.10;;
18501;SDS011;68437;52.236;5.710;2023-04-24T11:21:38;17.35;;;5.22;;
18501;SDS011;68437;52.236;5.710;2023-04-24T11:24:23;16.08;;;4.82;;
18501;SDS011;68437;52.236;5.710;2023-04-24T11:26:54;8.27;;;2.65;;
18501;SDS011;68437;52.236;5.710;2023-04-24T11:29:21;7.88;;;2.63;;
18501;SDS011;68437;52.236;5.710;2023-04-24T11:31:49;9.52;;;2.75;;
18501;SDS011;68437;52.236;5.710;2023-04-24T11:34:18;7.13;;;1.90;;
18501;SDS011;68437;52.236;5.710;2023-04-24T11:36:45;4.28;;;2.47;;
18501;SDS011;68437;52.236;5.710;2023-04-24T11:39:12;4.53;;;1.58;;
18501;SDS011;68437;52.236;5.710;2023-04-24T11:41:40;8.30;;;3.33;;
18501;SDS011;68437;52.236;5.710;2023-04-24T11:44:07;2.95;;;1.50;;
18501;SDS011;68437;52.236;5.710;2023-04-24T11:46:35;5.40;;;1.42;;
18501;SDS011;68437;52.236;5.710;2023-04-24T11:49:03;4.75;;;1.50;;
18501;SDS011;68437;52.236;5.710;2023-04-24T11:51:31;4.85;;;2.15;;
18501;SDS011;68437;52.236;5.710;2023-04-24T11:53:58;4.63;;;1.35;;
18501;SDS011;68437;52.236;5.710;2023-04-24T11:56:25;5.85;;;1.40;;
18501;SDS011;68437;52.236;5.710;2023-04-24T11:58:52;6.65;;;1.40;;
18501;SDS011;68437;52.236;5.710;2023-04-24T12:01:20;7.53;;;2.17;;
18501;SDS011;68437;52.236;5.710;2023-04-24T12:03:47;4.63;;;1.80;;
18501;SDS011;68437;52.236;5.710;2023-04-24T12:06:16;3.90;;;1.55;;
18501;SDS011;68437;52.236;5.710;2023-04-24T12:08:46;4.88;;;1.67;;
18501;SDS011;68437;52.236;5.710;2023-04-24T12:11:14;3.80;;;1.50;;
18501;SDS011;68437;52.236;5.710;2023-04-24T12:13:43;4.63;;;1.73;;
18501;SDS011;68437;52.236;5.710;2023-04-24T12:16:11;4.65;;;1.65;;
18501;SDS011;68437;52.236;5.710;2023-04-24T12:18:41;4.43;;;1.80;;
18501;SDS011;68437;52.236;5.710;2023-04-24T12:21:16;4.65;;;1.80;;
18501;SDS011;68437;52.236;5.710;2023-04-24T12:23:44;5.32;;;1.55;;
18501;SDS011;68437;52.236;5.710;2023-04-24T12:26:14;7.15;;;1.65;;
18501;SDS011;68437;52.236;5.710;2023-04-24T12:28:45;7.28;;;1.60;;
18501;SDS011;68437;52.236;5.710;2023-04-24T12:31:13;5.60;;;1.63;;
18501;SDS011;68437;52.236;5.710;2023-04-24T12:33:40;8.05;;;1.60;;
18501;SDS011;68437;52.236;5.710;2023-04-24T12:36:09;6.97;;;1.73;;
18501;SDS011;68437;52.236;5.710;2023-04-24T12:38:37;8.25;;;1.98;;
18501;SDS011;68437;52.236;5.710;2023-04-24T12:41:06;10.55;;;2.10;;
18501;SDS011;68437;52.236;5.710;2023-04-24T12:43:35;6.90;;;1.92;;
18501;SDS011;68437;52.236;5.710;2023-04-24T12:46:03;8.38;;;1.88;;
18501;SDS011;68437;52.236;5.710;2023-04-24T12:48:30;8.40;;;2.20;;
18501;SDS011;68437;52.236;5.710;2023-04-24T12:50:57;10.45;;;2.25;;
18501;SDS011;68437;52.236;5.710;2023-04-24T12:53:26;10.23;;;1.77;;
18501;SDS011;68437;52.236;5.710;2023-04-24T12:55:56;8.20;;;2.13;;
18501;SDS011;68437;52.236;5.710;2023-04-24T12:58:23;7.00;;;1.90;;
18501;SDS011;68437;52.236;5.710;2023-04-24T13:00:51;5.05;;;1.73;;
18501;SDS011;68437;52.236;5.710;2023-04-24T13:03:19;11.38;;;1.70;;
18501;SDS011;68437;52.236;5.710;2023-04-24T13:05:47;8.85;;;2.20;;
18501;SDS011;68437;52.236;5.710;2023-04-24T13:08:14;11.20;;;1.95;;
18501;SDS011;68437;52.236;5.710;2023-04-24T13:10:41;9.07;;;1.90;;
18501;SDS011;68437;52.236;5.710;2023-04-24T13:13:08;6.20;;;1.90;;
18501;SDS011;68437;52.236;5.710;2023-04-24T13:15:35;8.77;;;2.85;;
18501;SDS011;68437;52.236;5.710;2023-04-24T13:18:03;12.93;;;2.65;;
18501;SDS011;68437;52.236;5.710;2023-04-24T13:20:30;7.85;;;2.45;;
18501;SDS011;68437;52.236;5.710;2023-04-24T13:22:56;10.10;;;2.30;;
18501;SDS011;68437;52.236;5.710;2023-04-24T13:25:23;16.10;;;2.70;;
18501;SDS011;68437;52.236;5.710;2023-04-24T13:27:51;12.30;;;2.72;;
18501;SDS011;68437;52.236;5.710;2023-04-24T13:30:18;13.20;;;2.78;;
18501;SDS011;68437;52.236;5.710;2023-04-24T13:32:45;13.07;;;3.38;;
18501;SDS011;68437;52.236;5.710;2023-04-24T13:35:13;12.75;;;2.80;;
18501;SDS011;68437;52.236;5.710;2023-04-24T13:37:40;10.45;;;3.15;;
18501;SDS011;68437;52.236;5.710;2023-04-24T13:40:07;17.13;;;2.88;;
18501;SDS011;68437;52.236;5.710;2023-04-24T13:42:35;17.15;;;3.13;;
18501;SDS011;68437;52.236;5.710;2023-04-24T13:45:02;16.10;;;3.13;;
18501;SDS011;68437;52.236;5.710;2023-04-24T13:47:30;20.02;;;3.75;;
18501;SDS011;68437;52.236;5.710;2023-04-24T13:49:57;17.00;;;3.40;;
18501;SDS011;68437;52.236;5.710;2023-04-24T13:52:25;17.73;;;4.70;;
18501;SDS011;68437;52.236;5.710;2023-04-24T13:54:51;18.20;;;3.63;;
18501;SDS011;68437;52.236;5.710;2023-04-24T13:57:18;13.30;;;3.42;;
18501;SDS011;68437;52.236;5.710;2023-04-24T13:59:45;22.77;;;3.78;;
18501;SDS011;68437;52.236;5.710;2023-04-24T14:02:12;22.58;;;3.38;;
18501;SDS011;68437;52.236;5.710;2023-04-24T14:04:39;14.18;;;3.10;;
18501;SDS011;68437;52.236;5.710;2023-04-24T14:07:06;18.60;;;3.40;;
18501;SDS011;68437;52.236;5.710;2023-04-24T14:09:35;20.85;;;3.33;;
18501;SDS011;68437;52.236;5.710;2023-04-24T14:12:02;15.52;;;3.28;;
18501;SDS011;68437;52.236;5.710;2023-04-24T14:14:29;20.20;;;4.07;;
18501;SDS011;68437;52.236;5.710;2023-04-24T14:16:56;13.27;;;3.20;;
18501;SDS011;68437;52.236;5.710;2023-04-24T14:19:23;15.45;;;3.85;;
18501;SDS011;68437;52.236;5.710;2023-04-24T14:21:50;16.08;;;3.58;;
18501;SDS011;68437;52.236;5.710;2023-04-24T14:24:17;12.77;;;3.30;;
18501;SDS011;68437;52.236;5.710;2023-04-24T14:26:45;13.40;;;3.47;;
18501;SDS011;68437;52.236;5.710;2023-04-24T14:29:12;14.38;;;3.30;;
18501;SDS011;68437;52.236;5.710;2023-04-24T14:31:40;14.88;;;3.30;;
18501;SDS011;68437;52.236;5.710;2023-04-24T14:34:07;10.82;;;3.13;;
18501;SDS011;68437;52.236;5.710;2023-04-24T14:36:34;15.93;;;3.70;;
18501;SDS011;68437;52.236;5.710;2023-04-24T14:39:01;10.77;;;3.35;;